Dikson, Russia
Current Conditions -  °F | °C
As of 10:30 AM on Sunday 25 Jan 2015 (Local Time) from USRR Reporting Station
Broken Clouds Broken Clouds  
Wind Chill: -2°   Ceiling: 7000
Heat Index:   Visibility: 4mi
Dew Point:   Wind: 7mph
Humidity: 79%   Direction: 210°SSW
Pressure: 30.62"   Gusts: NA
Location:  73.51°N, 80.55°E
Report Text: USRR 250330Z 21003MPS 7000 BKN070 M13/M16 Q1037 NOSIG RMKQFE772 25////34
Loading
Personal Weather Stations






























Interactive Weather Map New forecast layout! Learn more

10-Day Weather Forecast

Advertisements
Track Severe Weather on mobile